sensor_id;sensor_type;location;lat;lon;timestamp;pressure;altitude;pressure_sealevel;temperature;humidity
63665;BME280;49820;33.966;73.390;2023-02-20T02:59:47;78679.75;;;7.26;98.84
63665;BME280;49820;33.966;73.390;2023-02-20T03:02:21;78667.81;;;7.25;99.88
63665;BME280;49820;33.966;73.390;2023-02-20T03:04:52;78662.44;;;7.29;99.35
63665;BME280;49820;33.966;73.390;2023-02-20T03:07:23;78670.84;;;7.46;98.17
63665;BME280;49820;33.966;73.390;2023-02-20T03:09:58;78672.72;;;7.53;98.67
63665;BME280;49820;33.966;73.390;2023-02-20T03:12:38;78678.06;;;7.49;97.74
63665;BME280;49820;33.966;73.390;2023-02-20T03:15:18;78684.09;;;7.89;97.01
63665;BME280;49820;33.966;73.390;2023-02-20T03:20:54;78683.28;;;8.37;92.34
63665;BME280;49820;33.966;73.390;2023-02-20T03:23:31;78701.06;;;8.47;91.27
63665;BME280;49820;33.966;73.390;2023-02-20T03:26:26;78678.75;;;8.67;92.13
63665;BME280;49820;33.966;73.390;2023-02-20T03:29:10;78675.84;;;8.79;87.24
63665;BME280;49820;33.966;73.390;2023-02-20T03:31:51;78680.38;;;8.85;89.10
63665;BME280;49820;33.966;73.390;2023-02-20T03:34:42;78704.25;;;9.87;84.41
63665;BME280;49820;33.966;73.390;2023-02-20T03:37:33;78699.91;;;10.03;83.14
63665;BME280;49820;33.966;73.390;2023-02-20T03:40:24;78688.69;;;10.27;78.75
63665;BME280;49820;33.966;73.390;2023-02-20T03:43:17;78712.09;;;11.05;76.89
63665;BME280;49820;33.966;73.390;2023-02-20T03:46:05;78674.00;;;11.54;72.67
63665;BME280;49820;33.966;73.390;2023-02-20T03:51:21;78687.38;;;12.24;66.93
63665;BME280;49820;33.966;73.390;2023-02-20T03:54:03;78722.09;;;12.72;65.67
63665;BME280;49820;33.966;73.390;2023-02-20T03:56:46;78720.84;;;12.90;63.97
63665;BME280;49820;33.966;73.390;2023-02-20T03:59:57;78724.22;;;13.53;62.22
63665;BME280;49820;33.966;73.390;2023-02-20T04:02:36;78714.78;;;13.12;62.91
63665;BME280;49820;33.966;73.390;2023-02-20T04:05:15;78703.28;;;12.95;63.80
63665;BME280;49820;33.966;73.390;2023-02-20T04:10:23;78721.44;;;13.55;60.73
63665;BME280;49820;33.966;73.390;2023-02-20T04:12:54;78707.94;;;12.96;60.94
63665;BME280;49820;33.966;73.390;2023-02-20T04:15:26;78702.88;;;13.07;61.67
63665;BME280;49820;33.966;73.390;2023-02-20T04:18:04;78691.78;;;13.19;62.01
63665;BME280;49820;33.966;73.390;2023-02-20T04:20:33;78706.47;;;13.41;61.17
63665;BME280;49820;33.966;73.390;2023-02-20T04:23:19;78723.28;;;13.60;60.77
63665;BME280;49820;33.966;73.390;2023-02-20T04:25:55;78729.16;;;13.65;60.66
63665;BME280;49820;33.966;73.390;2023-02-20T04:28:26;78714.13;;;13.12;61.26
63665;BME280;49820;33.966;73.390;2023-02-20T04:30:59;78718.00;;;13.38;60.94
63665;BME280;49820;33.966;73.390;2023-02-20T04:33:32;78731.00;;;13.50;59.63
63665;BME280;49820;33.966;73.390;2023-02-20T04:36:07;78730.06;;;13.78;60.72
63665;BME280;49820;33.966;73.390;2023-02-20T04:38:40;78723.84;;;13.63;60.86
63665;BME280;49820;33.966;73.390;2023-02-20T04:41:13;78737.47;;;13.96;59.33
63665;BME280;49820;33.966;73.390;2023-02-20T04:43:44;78735.03;;;14.09;60.01
63665;BME280;49820;33.966;73.390;2023-02-20T04:46:15;78730.97;;;14.10;60.86
63665;BME280;49820;33.966;73.390;2023-02-20T04:48:45;78731.53;;;13.94;60.18
63665;BME280;49820;33.966;73.390;2023-02-20T04:51:15;78720.84;;;13.92;60.60
63665;BME280;49820;33.966;73.390;2023-02-20T04:53:43;78726.81;;;14.13;59.11
63665;BME280;49820;33.966;73.390;2023-02-20T04:56:13;78721.69;;;14.26;58.77
63665;BME280;49820;33.966;73.390;2023-02-20T04:58:45;78740.25;;;14.88;59.26
63665;BME280;49820;33.966;73.390;2023-02-20T05:01:19;78745.97;;;14.97;58.38
63665;BME280;49820;33.966;73.390;2023-02-20T05:03:49;78749.59;;;15.24;57.19
63665;BME280;49820;33.966;73.390;2023-02-20T05:06:18;78730.34;;;15.18;55.08
63665;BME280;49820;33.966;73.390;2023-02-20T05:08:48;78740.63;;;14.22;53.83
63665;BME280;49820;33.966;73.390;2023-02-20T05:11:18;78756.84;;;14.38;56.03
63665;BME280;49820;33.966;73.390;2023-02-20T05:13:47;78747.56;;;13.96;55.59
63665;BME280;49820;33.966;73.390;2023-02-20T05:16:16;78737.88;;;13.65;56.08
63665;BME280;49820;33.966;73.390;2023-02-20T05:18:45;78748.88;;;13.57;55.30
63665;BME280;49820;33.966;73.390;2023-02-20T05:21:14;78749.66;;;13.12;56.07
63665;BME280;49820;33.966;73.390;2023-02-20T05:24:01;78755.59;;;13.38;56.97
63665;BME280;49820;33.966;73.390;2023-02-20T05:26:34;78763.94;;;13.27;58.19
63665;BME280;49820;33.966;73.390;2023-02-20T05:29:03;78768.13;;;13.22;59.13
63665;BME280;49820;33.966;73.390;2023-02-20T05:31:33;78747.47;;;13.19;59.17
63665;BME280;49820;33.966;73.390;2023-02-20T05:34:02;78776.44;;;13.35;57.90
63665;BME280;49820;33.966;73.390;2023-02-20T05:36:31;78765.47;;;12.99;57.84
63665;BME280;49820;33.966;73.390;2023-02-20T05:39:00;78764.38;;;12.70;56.66
63665;BME280;49820;33.966;73.390;2023-02-20T05:41:29;78766.75;;;12.57;58.32
63665;BME280;49820;33.966;73.390;2023-02-20T05:44:00;78765.00;;;12.72;61.35
63665;BME280;49820;33.966;73.390;2023-02-20T05:46:29;78757.97;;;12.81;61.42
63665;BME280;49820;33.966;73.390;2023-02-20T05:48:58;78768.00;;;13.26;61.48
63665;BME280;49820;33.966;73.390;2023-02-20T05:51:29;78781.13;;;13.14;59.22
63665;BME280;49820;33.966;73.390;2023-02-20T05:54:00;78760.31;;;12.93;61.55
63665;BME280;49820;33.966;73.390;2023-02-20T05:56:29;78778.47;;;12.91;62.75
63665;BME280;49820;33.966;73.390;2023-02-20T05:59:00;78773.75;;;12.71;63.08
63665;BME280;49820;33.966;73.390;2023-02-20T06:01:30;78781.47;;;12.12;67.05
63665;BME280;49820;33.966;73.390;2023-02-20T06:03:59;78769.09;;;11.76;68.71
63665;BME280;49820;33.966;73.390;2023-02-20T06:06:39;78781.28;;;12.18;69.08
63665;BME280;49820;33.966;73.390;2023-02-20T06:09:09;78770.00;;;12.39;73.66
63665;BME280;49820;33.966;73.390;2023-02-20T06:11:39;78768.84;;;11.84;72.31
63665;BME280;49820;33.966;73.390;2023-02-20T06:14:08;78745.56;;;11.29;77.60
63665;BME280;49820;33.966;73.390;2023-02-20T06:16:37;78762.63;;;11.42;79.42
63665;BME280;49820;33.966;73.390;2023-02-20T06:19:05;78733.34;;;11.61;78.12
63665;BME280;49820;33.966;73.390;2023-02-20T06:21:34;78772.91;;;12.08;76.92
63665;BME280;49820;33.966;73.390;2023-02-20T06:24:05;78734.28;;;13.31;72.19
63665;BME280;49820;33.966;73.390;2023-02-20T06:26:39;78753.69;;;14.32;68.94
63665;BME280;49820;33.966;73.390;2023-02-20T06:29:09;78755.28;;;15.16;66.27
63665;BME280;49820;33.966;73.390;2023-02-20T06:31:38;78730.31;;;14.47;65.91
63665;BME280;49820;33.966;73.390;2023-02-20T06:34:08;78740.50;;;15.51;68.80
63665;BME280;49820;33.966;73.390;2023-02-20T06:36:39;78743.28;;;14.97;62.85
63665;BME280;49820;33.966;73.390;2023-02-20T06:39:10;78747.69;;;15.04;62.91
63665;BME280;49820;33.966;73.390;2023-02-20T06:41:40;78728.78;;;15.58;63.72
63665;BME280;49820;33.966;73.390;2023-02-20T06:44:09;78737.31;;;17.07;60.52
63665;BME280;49820;33.966;73.390;2023-02-20T06:46:38;78733.16;;;18.26;56.58
63665;BME280;49820;33.966;73.390;2023-02-20T06:49:08;78731.50;;;16.23;55.18
63665;BME280;49820;33.966;73.390;2023-02-20T06:51:38;78715.06;;;17.22;57.46
63665;BME280;49820;33.966;73.390;2023-02-20T06:54:12;78715.78;;;18.36;54.79
63665;BME280;49820;33.966;73.390;2023-02-20T06:56:41;78702.56;;;18.57;54.56
63665;BME280;49820;33.966;73.390;2023-02-20T06:59:11;78713.63;;;18.11;52.51
63665;BME280;49820;33.966;73.390;2023-02-20T07:01:42;78711.06;;;16.91;52.50
63665;BME280;49820;33.966;73.390;2023-02-20T07:04:20;78719.16;;;15.63;56.23
63665;BME280;49820;33.966;73.390;2023-02-20T07:06:53;78695.25;;;15.55;58.05
63665;BME280;49820;33.966;73.390;2023-02-20T07:09:22;78691.44;;;14.98;57.86
63665;BME280;49820;33.966;73.390;2023-02-20T07:11:53;78712.09;;;13.93;62.33
63665;BME280;49820;33.966;73.390;2023-02-20T07:14:22;78703.75;;;13.22;66.74
63665;BME280;49820;33.966;73.390;2023-02-20T07:16:51;78656.19;;;13.00;67.82
63665;BME280;49820;33.966;73.390;2023-02-20T07:19:20;78677.16;;;13.35;63.69
63665;BME280;49820;33.966;73.390;2023-02-20T07:21:49;78682.00;;;13.89;62.99
63665;BME280;49820;33.966;73.390;2023-02-20T07:24:19;78682.25;;;13.43;63.78
63665;BME280;49820;33.966;73.390;2023-02-20T07:26:48;78681.47;;;13.47;65.09
63665;BME280;49820;33.966;73.390;2023-02-20T07:29:17;78667.44;;;13.84;65.63
63665;BME280;49820;33.966;73.390;2023-02-20T07:31:46;78669.50;;;14.56;64.41
63665;BME280;49820;33.966;73.390;2023-02-20T07:34:15;78663.50;;;16.69;60.80
63665;BME280;49820;33.966;73.390;2023-02-20T07:36:45;78628.53;;;17.68;55.50
63665;BME280;49820;33.966;73.390;2023-02-20T07:39:14;78626.13;;;19.22;54.79
63665;BME280;49820;33.966;73.390;2023-02-20T07:41:44;78635.66;;;16.87;51.71
63665;BME280;49820;33.966;73.390;2023-02-20T07:44:43;78646.66;;;15.41;57.00
63665;BME280;49820;33.966;73.390;2023-02-20T07:47:14;78643.69;;;14.63;59.09
63665;BME280;49820;33.966;73.390;2023-02-20T07:49:43;78646.50;;;14.78;60.31
63665;BME280;49820;33.966;73.390;2023-02-20T07:52:12;78639.59;;;14.47;60.20
63665;BME280;49820;33.966;73.390;2023-02-20T07:54:42;78639.97;;;14.73;61.71
63665;BME280;49820;33.966;73.390;2023-02-20T07:57:11;78640.41;;;14.96;59.25
63665;BME280;49820;33.966;73.390;2023-02-20T07:59:40;78646.84;;;16.33;56.41
63665;BME280;49820;33.966;73.390;2023-02-20T08:02:09;78635.72;;;15.78;57.86
63665;BME280;49820;33.966;73.390;2023-02-20T08:04:38;78639.50;;;15.69;56.23
63665;BME280;49820;33.966;73.390;2023-02-20T08:07:07;78633.88;;;14.74;58.66
63665;BME280;49820;33.966;73.390;2023-02-20T08:09:36;78622.97;;;14.24;58.90
63665;BME280;49820;33.966;73.390;2023-02-20T08:12:06;78638.63;;;14.01;61.00
63665;BME280;49820;33.966;73.390;2023-02-20T08:14:35;78623.88;;;14.00;60.93
63665;BME280;49820;33.966;73.390;2023-02-20T08:17:03;78629.13;;;13.66;61.85
63665;BME280;49820;33.966;73.390;2023-02-20T08:19:32;78625.84;;;13.45;59.91
63665;BME280;49820;33.966;73.390;2023-02-20T08:22:02;78606.88;;;13.30;61.17
63665;BME280;49820;33.966;73.390;2023-02-20T08:24:30;78626.94;;;13.90;60.84
63665;BME280;49820;33.966;73.390;2023-02-20T08:26:59;78607.47;;;14.96;57.14
63665;BME280;49820;33.966;73.390;2023-02-20T08:29:29;78605.50;;;15.11;57.75
63665;BME280;49820;33.966;73.390;2023-02-20T08:31:58;78592.56;;;14.99;58.10
63665;BME280;49820;33.966;73.390;2023-02-20T08:34:27;78600.63;;;14.82;55.42
63665;BME280;49820;33.966;73.390;2023-02-20T08:36:56;78589.19;;;15.32;54.67
63665;BME280;49820;33.966;73.390;2023-02-20T08:39:25;78599.47;;;14.94;54.79
63665;BME280;49820;33.966;73.390;2023-02-20T08:41:55;78573.16;;;13.92;57.96
63665;BME280;49820;33.966;73.390;2023-02-20T08:44:24;78597.25;;;15.48;55.13
63665;BME280;49820;33.966;73.390;2023-02-20T08:46:53;78598.50;;;15.83;57.24
63665;BME280;49820;33.966;73.390;2023-02-20T08:49:23;78588.31;;;16.00;55.36
63665;BME280;49820;33.966;73.390;2023-02-20T08:51:54;78613.22;;;15.69;53.90
63665;BME280;49820;33.966;73.390;2023-02-20T08:54:24;78590.53;;;14.11;57.18
63665;BME280;49820;33.966;73.390;2023-02-20T08:56:54;78587.25;;;13.55;60.80
63665;BME280;49820;33.966;73.390;2023-02-20T08:59:23;78587.34;;;12.74;63.53
63665;BME280;49820;33.966;73.390;2023-02-20T09:01:51;78594.63;;;12.56;64.50
63665;BME280;49820;33.966;73.390;2023-02-20T09:04:20;78574.41;;;12.80;66.35
63665;BME280;49820;33.966;73.390;2023-02-20T09:06:51;78589.75;;;12.82;63.41
63665;BME280;49820;33.966;73.390;2023-02-20T09:09:20;78576.03;;;12.09;67.74
63665;BME280;49820;33.966;73.390;2023-02-20T09:11:50;78591.44;;;11.65;69.99
63665;BME280;49820;33.966;73.390;2023-02-20T09:14:19;78593.59;;;11.83;70.82
63665;BME280;49820;33.966;73.390;2023-02-20T09:16:51;78565.22;;;11.46;72.65
63665;BME280;49820;33.966;73.390;2023-02-20T09:19:21;78573.94;;;11.45;74.73
63665;BME280;49820;33.966;73.390;2023-02-20T09:21:51;78574.41;;;11.52;74.46
63665;BME280;49820;33.966;73.390;2023-02-20T09:24:20;78584.66;;;11.91;74.00
63665;BME280;49820;33.966;73.390;2023-02-20T09:26:49;78584.91;;;11.82;75.60
63665;BME280;49820;33.966;73.390;2023-02-20T09:29:17;78555.03;;;11.74;78.13
63665;BME280;49820;33.966;73.390;2023-02-20T09:31:46;78559.03;;;11.75;75.56
63665;BME280;49820;33.966;73.390;2023-02-20T09:34:15;78587.44;;;11.64;76.96
63665;BME280;49820;33.966;73.390;2023-02-20T09:36:45;78592.81;;;11.41;82.01
63665;BME280;49820;33.966;73.390;2023-02-20T09:39:14;78573.50;;;10.91;88.30
63665;BME280;49820;33.966;73.390;2023-02-20T09:45:10;78583.31;;;10.49;89.26
63665;BME280;49820;33.966;73.390;2023-02-20T09:50:43;78584.72;;;9.92;99.17
63665;BME280;49820;33.966;73.390;2023-02-20T09:53:34;78573.59;;;9.56;100.00
63665;BME280;49820;33.966;73.390;2023-02-20T09:56:12;78563.38;;;9.07;100.00
63665;BME280;49820;33.966;73.390;2023-02-20T10:01:17;78518.22;;;8.04;100.00
63665;BME280;49820;33.966;73.390;2023-02-20T10:04:05;78543.41;;;8.10;100.00
63665;BME280;49820;33.966;73.390;2023-02-20T10:06:36;78542.88;;;7.68;100.00
63665;BME280;49820;33.966;73.390;2023-02-20T10:09:10;78560.59;;;7.41;100.00
63665;BME280;49820;33.966;73.390;2023-02-20T10:17:41;78558.59;;;6.57;100.00
63665;BME280;49820;33.966;73.390;2023-02-20T10:23:24;78530.88;;;6.48;100.00
63665;BME280;49820;33.966;73.390;2023-02-20T10:26:07;78521.59;;;6.47;100.00
63665;BME280;49820;33.966;73.390;2023-02-20T10:28:39;78505.69;;;6.00;100.00
63665;BME280;49820;33.966;73.390;2023-02-20T10:34:00;78539.31;;;6.16;100.00
63665;BME280;49820;33.966;73.390;2023-02-20T10:36:42;78535.34;;;6.12;100.00
63665;BME280;49820;33.966;73.390;2023-02-20T10:39:17;78531.88;;;5.71;100.00
63665;BME280;49820;33.966;73.390;2023-02-20T10:41:54;78522.06;;;5.61;100.00
63665;BME280;49820;33.966;73.390;2023-02-20T10:45:07;78549.41;;;6.03;100.00
63665;BME280;49820;33.966;73.390;2023-02-20T10:47:42;78549.16;;;6.21;100.00
63665;BME280;49820;33.966;73.390;2023-02-20T10:50:18;78558.41;;;6.24;100.00
63665;BME280;49820;33.966;73.390;2023-02-20T10:56:18;78583.31;;;6.45;100.00
63665;BME280;49820;33.966;73.390;2023-02-20T11:01:58;78546.03;;;6.56;100.00
63665;BME280;49820;33.966;73.390;2023-02-20T11:04:38;78553.38;;;6.51;100.00
63665;BME280;49820;33.966;73.390;2023-02-20T11:07:13;78530.38;;;6.35;100.00
63665;BME280;49820;33.966;73.390;2023-02-20T11:09:42;78563.31;;;6.53;100.00
63665;BME280;49820;33.966;73.390;2023-02-20T11:12:31;78562.69;;;6.50;100.00
63665;BME280;49820;33.966;73.390;2023-02-20T11:15:23;78560.34;;;6.28;100.00
63665;BME280;49820;33.966;73.390;2023-02-20T11:17:55;78559.53;;;5.88;100.00
63665;BME280;49820;33.966;73.390;2023-02-20T11:23:01;78591.94;;;5.93;100.00
63665;BME280;49820;33.966;73.390;2023-02-20T11:25:33;78574.56;;;6.04;100.00
63665;BME280;49820;33.966;73.390;2023-02-20T11:28:10;78555.78;;;5.67;100.00
63665;BME280;49820;33.966;73.390;2023-02-20T11:30:47;78592.81;;;5.10;100.00
63665;BME280;49820;33.966;73.390;2023-02-20T11:33:21;78550.97;;;4.51;100.00
63665;BME280;49820;33.966;73.390;2023-02-20T11:35:55;78563.78;;;4.20;100.00
63665;BME280;49820;33.966;73.390;2023-02-20T11:38:29;78579.09;;;4.03;100.00
63665;BME280;49820;33.966;73.390;2023-02-20T11:41:09;78593.91;;;3.45;100.00
63665;BME280;49820;33.966;73.390;2023-02-20T11:43:43;78598.56;;;3.33;100.00
63665;BME280;49820;33.966;73.390;2023-02-20T11:46:28;78609.22;;;3.13;100.00
63665;BME280;49820;33.966;73.390;2023-02-20T11:49:05;78633.66;;;2.85;100.00
63665;BME280;49820;33.966;73.390;2023-02-20T11:51:40;78645.59;;;2.67;100.00
63665;BME280;49820;33.966;73.390;2023-02-20T11:54:20;78643.59;;;2.46;100.00
63665;BME280;49820;33.966;73.390;2023-02-20T11:56:54;78650.84;;;2.53;100.00
63665;BME280;49820;33.966;73.390;2023-02-20T12:01:54;78679.88;;;2.41;100.00
63665;BME280;49820;33.966;73.390;2023-02-20T12:04:27;78677.22;;;2.29;100.00
63665;BME280;49820;33.966;73.390;2023-02-20T12:06:57;78681.84;;;2.26;100.00
63665;BME280;49820;33.966;73.390;2023-02-20T12:09:27;78659.41;;;2.36;100.00
63665;BME280;49820;33.966;73.390;2023-02-20T12:11:58;78683.81;;;2.66;100.00
63665;BME280;49820;33.966;73.390;2023-02-20T12:14:27;78658.06;;;2.87;100.00
63665;BME280;49820;33.966;73.390;2023-02-20T12:17:11;78669.25;;;3.04;100.00
63665;BME280;49820;33.966;73.390;2023-02-20T12:22:38;78671.94;;;2.84;100.00
63665;BME280;49820;33.966;73.390;2023-02-20T12:25:13;78667.97;;;2.93;100.00
63665;BME280;49820;33.966;73.390;2023-02-20T12:27:58;78663.28;;;3.18;100.00
63665;BME280;49820;33.966;73.390;2023-02-20T12:30:54;78664.56;;;3.39;100.00
63665;BME280;49820;33.966;73.390;2023-02-20T12:39:31;78661.75;;;3.81;100.00
63665;BME280;49820;33.966;73.390;2023-02-20T12:42:09;78689.47;;;3.93;100.00
63665;BME280;49820;33.966;73.390;2023-02-20T12:50:24;78653.25;;;3.67;100.00
63665;BME280;49820;33.966;73.390;2023-02-20T12:53:05;78653.16;;;3.89;100.00
63665;BME280;49820;33.966;73.390;2023-02-20T12:56:02;78636.06;;;3.66;100.00
63665;BME280;49820;33.966;73.390;2023-02-20T12:58:47;78653.88;;;3.77;100.00
63665;BME280;49820;33.966;73.390;2023-02-20T13:01:19;78640.72;;;3.61;100.00
63665;BME280;49820;33.966;73.390;2023-02-20T13:04:23;78679.56;;;3.95;100.00
63665;BME280;49820;33.966;73.390;2023-02-20T13:07:06;78621.38;;;4.05;100.00
63665;BME280;49820;33.966;73.390;2023-02-20T13:12:16;78674.50;;;3.18;100.00
63665;BME280;49820;33.966;73.390;2023-02-20T13:15:04;78668.00;;;2.75;100.00
63665;BME280;49820;33.966;73.390;2023-02-20T13:17:44;78679.88;;;2.55;100.00
63665;BME280;49820;33.966;73.390;2023-02-20T13:20:23;78671.94;;;2.23;100.00
63665;BME280;49820;33.966;73.390;2023-02-20T13:23:03;78683.13;;;2.19;100.00
63665;BME280;49820;33.966;73.390;2023-02-20T13:25:39;78664.00;;;1.90;100.00
63665;BME280;49820;33.966;73.390;2023-02-20T13:31:17;78691.66;;;2.04;100.00
63665;BME280;49820;33.966;73.390;2023-02-20T13:34:25;78710.78;;;2.00;100.00
63665;BME280;49820;33.966;73.390;2023-02-20T13:36:44;78700.19;;;1.80;100.00
63665;BME280;49820;33.966;73.390;2023-02-20T13:49:57;78713.41;;;1.94;100.00
63665;BME280;49820;33.966;73.390;2023-02-20T13:52:38;78715.38;;;1.94;100.00
63665;BME280;49820;33.966;73.390;2023-02-20T13:57:47;78746.31;;;1.89;100.00
63665;BME280;49820;33.966;73.390;2023-02-20T14:00:44;78747.63;;;1.92;100.00
63665;BME280;49820;33.966;73.390;2023-02-20T14:03:22;78734.47;;;1.96;100.00
63665;BME280;49820;33.966;73.390;2023-02-20T14:06:05;78748.94;;;1.89;100.00
63665;BME280;49820;33.966;73.390;2023-02-20T14:08:38;78749.56;;;1.81;100.00
63665;BME280;49820;33.966;73.390;2023-02-20T14:11:33;78745.63;;;1.80;100.00
63665;BME280;49820;33.966;73.390;2023-02-20T14:17:23;78737.66;;;1.64;100.00
63665;BME280;49820;33.966;73.390;2023-02-20T14:20:00;78740.25;;;1.50;100.00
63665;BME280;49820;33.966;73.390;2023-02-20T14:22:43;78731.03;;;1.51;100.00
63665;BME280;49820;33.966;73.390;2023-02-20T14:25:24;78684.88;;;1.22;100.00
63665;BME280;49820;33.966;73.390;2023-02-20T14:28:09;78743.59;;;1.65;100.00
63665;BME280;49820;33.966;73.390;2023-02-20T14:30:39;78755.47;;;1.70;100.00
63665;BME280;49820;33.966;73.390;2023-02-20T14:33:23;78746.16;;;1.48;100.00
63665;BME280;49820;33.966;73.390;2023-02-20T14:41:57;78745.56;;;1.64;100.00
